sensor_id;sensor_type;location;lat;lon;timestamp;temperature;humidity
37222;DHT22;23119;51.842;-2.230;2023-08-08T00:00:23;16.00;99.90
37222;DHT22;23119;51.842;-2.230;2023-08-08T00:02:48;15.90;99.90
37222;DHT22;23119;51.842;-2.230;2023-08-08T00:05:14;15.90;99.90
37222;DHT22;23119;51.842;-2.230;2023-08-08T00:07:40;15.80;99.90
37222;DHT22;23119;51.842;-2.230;2023-08-08T00:10:06;15.80;99.90
37222;DHT22;23119;51.842;-2.230;2023-08-08T00:12:32;15.80;99.90
37222;DHT22;23119;51.842;-2.230;2023-08-08T00:14:57;15.70;99.90
37222;DHT22;23119;51.842;-2.230;2023-08-08T00:17:23;15.60;99.90
37222;DHT22;23119;51.842;-2.230;2023-08-08T00:19:49;15.50;99.90
37222;DHT22;23119;51.842;-2.230;2023-08-08T00:22:19;15.40;99.90
37222;DHT22;23119;51.842;-2.230;2023-08-08T00:24:47;15.40;99.90
37222;DHT22;23119;51.842;-2.230;2023-08-08T00:27:13;15.40;99.90
37222;DHT22;23119;51.842;-2.230;2023-08-08T00:29:39;15.40;99.90
37222;DHT22;23119;51.842;-2.230;2023-08-08T00:32:05;15.40;99.90
37222;DHT22;23119;51.842;-2.230;2023-08-08T00:34:33;15.40;99.90
37222;DHT22;23119;51.842;-2.230;2023-08-08T00:36:58;15.40;99.90
37222;DHT22;23119;51.842;-2.230;2023-08-08T00:39:24;15.40;99.90
37222;DHT22;23119;51.842;-2.230;2023-08-08T00:41:52;16.20;99.90
37222;DHT22;23119;51.842;-2.230;2023-08-08T00:44:18;15.30;99.90
37222;DHT22;23119;51.842;-2.230;2023-08-08T00:46:43;15.20;99.90
37222;DHT22;23119;51.842;-2.230;2023-08-08T00:49:09;15.30;99.90
37222;DHT22;23119;51.842;-2.230;2023-08-08T00:51:36;15.20;99.90
37222;DHT22;23119;51.842;-2.230;2023-08-08T00:54:06;15.30;99.90
37222;DHT22;23119;51.842;-2.230;2023-08-08T00:56:33;15.20;99.90
37222;DHT22;23119;51.842;-2.230;2023-08-08T00:59:02;15.30;99.90
37222;DHT22;23119;51.842;-2.230;2023-08-08T01:01:28;15.30;99.90
37222;DHT22;23119;51.842;-2.230;2023-08-08T01:03:54;15.30;99.90
37222;DHT22;23119;51.842;-2.230;2023-08-08T01:06:54;15.20;99.90
37222;DHT22;23119;51.842;-2.230;2023-08-08T01:09:24;15.20;99.90
37222;DHT22;23119;51.842;-2.230;2023-08-08T01:11:54;15.30;99.90
37222;DHT22;23119;51.842;-2.230;2023-08-08T01:14:21;15.30;99.90
37222;DHT22;23119;51.842;-2.230;2023-08-08T01:16:52;15.30;99.90
37222;DHT22;23119;51.842;-2.230;2023-08-08T01:19:27;15.30;99.90
37222;DHT22;23119;51.842;-2.230;2023-08-08T01:21:54;15.30;99.90
37222;DHT22;23119;51.842;-2.230;2023-08-08T01:24:24;15.40;99.90
37222;DHT22;23119;51.842;-2.230;2023-08-08T01:26:55;15.40;99.90
37222;DHT22;23119;51.842;-2.230;2023-08-08T01:29:21;15.40;99.90
37222;DHT22;23119;51.842;-2.230;2023-08-08T01:31:47;15.40;99.90
37222;DHT22;23119;51.842;-2.230;2023-08-08T01:34:13;15.40;99.90
37222;DHT22;23119;51.842;-2.230;2023-08-08T01:36:59;15.40;99.90
37222;DHT22;23119;51.842;-2.230;2023-08-08T01:39:29;15.40;99.90
37222;DHT22;23119;51.842;-2.230;2023-08-08T01:41:56;15.40;99.90
37222;DHT22;23119;51.842;-2.230;2023-08-08T01:44:24;15.40;99.90
37222;DHT22;23119;51.842;-2.230;2023-08-08T01:46:53;15.40;99.90
37222;DHT22;23119;51.842;-2.230;2023-08-08T01:49:21;15.40;99.90
37222;DHT22;23119;51.842;-2.230;2023-08-08T01:51:50;15.40;99.90
37222;DHT22;23119;51.842;-2.230;2023-08-08T01:54:18;15.40;99.90
37222;DHT22;23119;51.842;-2.230;2023-08-08T01:56:47;15.30;99.90
37222;DHT22;23119;51.842;-2.230;2023-08-08T01:59:13;15.30;99.90
37222;DHT22;23119;51.842;-2.230;2023-08-08T02:01:39;15.30;99.90
37222;DHT22;23119;51.842;-2.230;2023-08-08T02:04:08;15.30;99.90
37222;DHT22;23119;51.842;-2.230;2023-08-08T02:06:40;15.20;99.90
37222;DHT22;23119;51.842;-2.230;2023-08-08T02:09:12;15.20;99.90
37222;DHT22;23119;51.842;-2.230;2023-08-08T02:11:42;15.20;99.90
37222;DHT22;23119;51.842;-2.230;2023-08-08T02:14:08;15.20;99.90
37222;DHT22;23119;51.842;-2.230;2023-08-08T02:16:34;15.20;99.90
37222;DHT22;23119;51.842;-2.230;2023-08-08T02:19:00;15.10;99.90
37222;DHT22;23119;51.842;-2.230;2023-08-08T02:21:26;15.10;99.90
37222;DHT22;23119;51.842;-2.230;2023-08-08T02:23:52;15.10;99.90
37222;DHT22;23119;51.842;-2.230;2023-08-08T02:26:17;15.00;99.90
37222;DHT22;23119;51.842;-2.230;2023-08-08T02:28:43;15.00;99.90
37222;DHT22;23119;51.842;-2.230;2023-08-08T02:31:09;15.00;99.90
37222;DHT22;23119;51.842;-2.230;2023-08-08T02:33:35;15.00;99.90
37222;DHT22;23119;51.842;-2.230;2023-08-08T02:36:00;14.90;99.90
37222;DHT22;23119;51.842;-2.230;2023-08-08T02:38:26;14.90;99.90
37222;DHT22;23119;51.842;-2.230;2023-08-08T02:40:52;14.80;99.90
37222;DHT22;23119;51.842;-2.230;2023-08-08T02:43:18;14.70;99.90
37222;DHT22;23119;51.842;-2.230;2023-08-08T02:45:44;14.70;99.90
37222;DHT22;23119;51.842;-2.230;2023-08-08T02:48:14;14.70;99.90
37222;DHT22;23119;51.842;-2.230;2023-08-08T02:50:42;14.70;99.90
37222;DHT22;23119;51.842;-2.230;2023-08-08T02:53:08;14.70;99.90
37222;DHT22;23119;51.842;-2.230;2023-08-08T02:55:36;14.70;99.90
37222;DHT22;23119;51.842;-2.230;2023-08-08T02:58:01;14.70;99.90
37222;DHT22;23119;51.842;-2.230;2023-08-08T03:00:27;14.70;99.90
37222;DHT22;23119;51.842;-2.230;2023-08-08T03:02:58;14.70;99.90
37222;DHT22;23119;51.842;-2.230;2023-08-08T03:05:24;14.80;99.90
37222;DHT22;23119;51.842;-2.230;2023-08-08T03:07:49;14.80;99.90
37222;DHT22;23119;51.842;-2.230;2023-08-08T03:10:17;14.80;99.90
37222;DHT22;23119;51.842;-2.230;2023-08-08T03:12:45;14.90;99.90
37222;DHT22;23119;51.842;-2.230;2023-08-08T03:15:11;14.90;99.90
37222;DHT22;23119;51.842;-2.230;2023-08-08T03:17:37;14.90;99.90
37222;DHT22;23119;51.842;-2.230;2023-08-08T03:20:03;15.00;99.90
37222;DHT22;23119;51.842;-2.230;2023-08-08T03:22:31;15.00;99.90
37222;DHT22;23119;51.842;-2.230;2023-08-08T03:24:57;15.00;99.90
37222;DHT22;23119;51.842;-2.230;2023-08-08T03:27:24;15.10;99.90
37222;DHT22;23119;51.842;-2.230;2023-08-08T03:29:51;15.10;99.90
37222;DHT22;23119;51.842;-2.230;2023-08-08T03:32:17;15.10;99.90
37222;DHT22;23119;51.842;-2.230;2023-08-08T03:34:42;15.10;99.90
37222;DHT22;23119;51.842;-2.230;2023-08-08T03:37:08;15.10;99.90
37222;DHT22;23119;51.842;-2.230;2023-08-08T03:39:34;15.20;99.90
37222;DHT22;23119;51.842;-2.230;2023-08-08T03:42:00;15.20;99.90
37222;DHT22;23119;51.842;-2.230;2023-08-08T03:44:28;15.20;99.90
37222;DHT22;23119;51.842;-2.230;2023-08-08T03:46:54;15.20;99.90
37222;DHT22;23119;51.842;-2.230;2023-08-08T03:49:20;15.20;99.90
37222;DHT22;23119;51.842;-2.230;2023-08-08T03:51:46;15.20;99.90
37222;DHT22;23119;51.842;-2.230;2023-08-08T03:54:14;15.30;99.90
37222;DHT22;23119;51.842;-2.230;2023-08-08T03:56:40;15.30;99.90
37222;DHT22;23119;51.842;-2.230;2023-08-08T03:59:06;15.30;99.90
37222;DHT22;23119;51.842;-2.230;2023-08-08T04:01:32;15.30;99.90
37222;DHT22;23119;51.842;-2.230;2023-08-08T04:03:58;15.30;99.90
37222;DHT22;23119;51.842;-2.230;2023-08-08T04:06:24;15.30;99.90
37222;DHT22;23119;51.842;-2.230;2023-08-08T04:08:52;15.30;99.90
37222;DHT22;23119;51.842;-2.230;2023-08-08T04:11:18;15.30;99.90
37222;DHT22;23119;51.842;-2.230;2023-08-08T04:13:45;15.30;99.90
37222;DHT22;23119;51.842;-2.230;2023-08-08T04:16:11;15.30;99.90
37222;DHT22;23119;51.842;-2.230;2023-08-08T04:18:37;15.40;99.90
37222;DHT22;23119;51.842;-2.230;2023-08-08T04:21:02;15.40;99.90
37222;DHT22;23119;51.842;-2.230;2023-08-08T04:23:29;15.40;99.90
37222;DHT22;23119;51.842;-2.230;2023-08-08T04:25:55;15.40;99.90
37222;DHT22;23119;51.842;-2.230;2023-08-08T04:28:20;15.50;99.90
37222;DHT22;23119;51.842;-2.230;2023-08-08T04:30:46;15.50;99.90
37222;DHT22;23119;51.842;-2.230;2023-08-08T04:33:12;15.50;99.90
37222;DHT22;23119;51.842;-2.230;2023-08-08T04:35:38;15.40;99.90
37222;DHT22;23119;51.842;-2.230;2023-08-08T04:38:03;15.40;99.90
37222;DHT22;23119;51.842;-2.230;2023-08-08T04:40:29;15.50;99.90
37222;DHT22;23119;51.842;-2.230;2023-08-08T04:42:55;15.40;99.90
37222;DHT22;23119;51.842;-2.230;2023-08-08T04:45:21;15.50;99.90
37222;DHT22;23119;51.842;-2.230;2023-08-08T04:47:57;15.50;99.90
37222;DHT22;23119;51.842;-2.230;2023-08-08T04:50:25;15.40;99.90
37222;DHT22;23119;51.842;-2.230;2023-08-08T04:52:51;15.40;99.90
37222;DHT22;23119;51.842;-2.230;2023-08-08T04:55:19;15.50;99.90
37222;DHT22;23119;51.842;-2.230;2023-08-08T04:57:47;15.40;99.90
37222;DHT22;23119;51.842;-2.230;2023-08-08T05:00:14;15.40;99.90
37222;DHT22;23119;51.842;-2.230;2023-08-08T05:02:40;15.30;99.90
37222;DHT22;23119;51.842;-2.230;2023-08-08T05:05:09;15.30;99.90
37222;DHT22;23119;51.842;-2.230;2023-08-08T05:07:37;15.30;99.90
37222;DHT22;23119;51.842;-2.230;2023-08-08T05:10:04;15.30;99.90
37222;DHT22;23119;51.842;-2.230;2023-08-08T05:12:29;15.30;99.90
37222;DHT22;23119;51.842;-2.230;2023-08-08T05:14:55;15.30;99.90
37222;DHT22;23119;51.842;-2.230;2023-08-08T05:17:21;15.30;99.90
37222;DHT22;23119;51.842;-2.230;2023-08-08T05:19:46;15.30;99.90
37222;DHT22;23119;51.842;-2.230;2023-08-08T05:22:12;15.30;99.90
37222;DHT22;23119;51.842;-2.230;2023-08-08T05:24:42;15.30;99.90
37222;DHT22;23119;51.842;-2.230;2023-08-08T05:27:10;15.30;99.90
37222;DHT22;23119;51.842;-2.230;2023-08-08T05:29:36;15.30;99.90
37222;DHT22;23119;51.842;-2.230;2023-08-08T05:32:04;15.30;99.90
37222;DHT22;23119;51.842;-2.230;2023-08-08T05:34:32;15.30;99.90
37222;DHT22;23119;51.842;-2.230;2023-08-08T05:36:58;15.30;99.90
37222;DHT22;23119;51.842;-2.230;2023-08-08T05:39:24;15.30;99.90
37222;DHT22;23119;51.842;-2.230;2023-08-08T05:41:50;15.40;99.90
37222;DHT22;23119;51.842;-2.230;2023-08-08T05:44:15;15.30;99.90
37222;DHT22;23119;51.842;-2.230;2023-08-08T05:46:41;15.30;99.90
37222;DHT22;23119;51.842;-2.230;2023-08-08T05:49:07;15.40;99.90
37222;DHT22;23119;51.842;-2.230;2023-08-08T05:51:35;15.40;99.90
37222;DHT22;23119;51.842;-2.230;2023-08-08T05:54:03;15.30;99.90
37222;DHT22;23119;51.842;-2.230;2023-08-08T05:56:36;15.30;99.90
37222;DHT22;23119;51.842;-2.230;2023-08-08T05:59:05;15.30;99.90
37222;DHT22;23119;51.842;-2.230;2023-08-08T06:01:31;15.40;99.90
37222;DHT22;23119;51.842;-2.230;2023-08-08T06:03:57;15.40;99.90
37222;DHT22;23119;51.842;-2.230;2023-08-08T06:06:26;15.40;99.90
37222;DHT22;23119;51.842;-2.230;2023-08-08T06:08:54;15.30;99.90
37222;DHT22;23119;51.842;-2.230;2023-08-08T06:11:20;15.40;99.90
37222;DHT22;23119;51.842;-2.230;2023-08-08T06:13:48;15.40;99.90
37222;DHT22;23119;51.842;-2.230;2023-08-08T06:16:14;15.40;99.90
37222;DHT22;23119;51.842;-2.230;2023-08-08T06:18:41;15.40;99.90
37222;DHT22;23119;51.842;-2.230;2023-08-08T06:21:07;15.40;99.90
37222;DHT22;23119;51.842;-2.230;2023-08-08T06:23:33;15.50;99.90
37222;DHT22;23119;51.842;-2.230;2023-08-08T06:26:00;15.50;99.90
37222;DHT22;23119;51.842;-2.230;2023-08-08T06:28:26;15.50;99.90
37222;DHT22;23119;51.842;-2.230;2023-08-08T06:30:52;15.50;99.90
37222;DHT22;23119;51.842;-2.230;2023-08-08T06:33:18;15.50;99.90
37222;DHT22;23119;51.842;-2.230;2023-08-08T06:35:45;15.60;99.90
37222;DHT22;23119;51.842;-2.230;2023-08-08T06:38:11;15.60;99.90
37222;DHT22;23119;51.842;-2.230;2023-08-08T06:40:40;15.70;99.90
37222;DHT22;23119;51.842;-2.230;2023-08-08T06:43:06;15.70;99.90
37222;DHT22;23119;51.842;-2.230;2023-08-08T06:45:32;15.70;99.90
37222;DHT22;23119;51.842;-2.230;2023-08-08T06:47:58;15.70;99.90
37222;DHT22;23119;51.842;-2.230;2023-08-08T06:50:23;15.80;99.90
37222;DHT22;23119;51.842;-2.230;2023-08-08T06:52:52;15.80;99.90
37222;DHT22;23119;51.842;-2.230;2023-08-08T06:55:20;15.80;99.90
37222;DHT22;23119;51.842;-2.230;2023-08-08T06:57:46;15.80;99.90
37222;DHT22;23119;51.842;-2.230;2023-08-08T07:00:12;15.80;99.90
37222;DHT22;23119;51.842;-2.230;2023-08-08T07:02:39;15.80;99.90
37222;DHT22;23119;51.842;-2.230;2023-08-08T07:05:06;15.90;99.90
37222;DHT22;23119;51.842;-2.230;2023-08-08T07:07:34;16.00;99.90
37222;DHT22;23119;51.842;-2.230;2023-08-08T07:10:00;16.10;99.90
37222;DHT22;23119;51.842;-2.230;2023-08-08T07:12:26;16.10;99.90
37222;DHT22;23119;51.842;-2.230;2023-08-08T07:14:57;16.20;99.90
37222;DHT22;23119;51.842;-2.230;2023-08-08T07:17:22;16.20;99.90
37222;DHT22;23119;51.842;-2.230;2023-08-08T07:19:48;16.30;99.90
37222;DHT22;23119;51.842;-2.230;2023-08-08T07:22:14;16.30;99.90
37222;DHT22;23119;51.842;-2.230;2023-08-08T07:24:42;16.30;99.90
37222;DHT22;23119;51.842;-2.230;2023-08-08T07:27:08;16.30;99.90
37222;DHT22;23119;51.842;-2.230;2023-08-08T07:29:34;16.30;99.90
37222;DHT22;23119;51.842;-2.230;2023-08-08T07:32:03;16.40;99.90
37222;DHT22;23119;51.842;-2.230;2023-08-08T07:34:29;16.30;99.90
37222;DHT22;23119;51.842;-2.230;2023-08-08T07:36:57;16.30;99.90
37222;DHT22;23119;51.842;-2.230;2023-08-08T07:39:25;16.30;99.90
37222;DHT22;23119;51.842;-2.230;2023-08-08T07:41:52;16.20;99.90
37222;DHT22;23119;51.842;-2.230;2023-08-08T07:44:18;16.20;99.90
37222;DHT22;23119;51.842;-2.230;2023-08-08T07:46:43;16.20;99.90
37222;DHT22;23119;51.842;-2.230;2023-08-08T07:49:09;16.20;99.90
37222;DHT22;23119;51.842;-2.230;2023-08-08T07:51:35;16.30;99.90
37222;DHT22;23119;51.842;-2.230;2023-08-08T07:54:01;16.40;99.90
37222;DHT22;23119;51.842;-2.230;2023-08-08T07:56:27;16.30;99.90
37222;DHT22;23119;51.842;-2.230;2023-08-08T07:58:53;16.30;99.90
37222;DHT22;23119;51.842;-2.230;2023-08-08T08:01:18;16.30;99.90
37222;DHT22;23119;51.842;-2.230;2023-08-08T08:03:44;16.30;99.90
37222;DHT22;23119;51.842;-2.230;2023-08-08T08:06:11;16.30;99.90
37222;DHT22;23119;51.842;-2.230;2023-08-08T08:08:37;16.30;99.90
37222;DHT22;23119;51.842;-2.230;2023-08-08T08:11:03;16.30;99.90
37222;DHT22;23119;51.842;-2.230;2023-08-08T08:13:29;16.30;99.90
37222;DHT22;23119;51.842;-2.230;2023-08-08T08:15:54;16.40;99.90
37222;DHT22;23119;51.842;-2.230;2023-08-08T08:18:20;16.40;99.90
37222;DHT22;23119;51.842;-2.230;2023-08-08T08:20:47;16.50;99.90
37222;DHT22;23119;51.842;-2.230;2023-08-08T08:23:15;16.40;99.90
37222;DHT22;23119;51.842;-2.230;2023-08-08T08:25:41;16.40;99.90
37222;DHT22;23119;51.842;-2.230;2023-08-08T08:28:10;16.40;99.90
37222;DHT22;23119;51.842;-2.230;2023-08-08T08:30:35;16.50;99.90
37222;DHT22;23119;51.842;-2.230;2023-08-08T08:33:02;16.50;99.90
37222;DHT22;23119;51.842;-2.230;2023-08-08T08:35:36;16.60;99.90
37222;DHT22;23119;51.842;-2.230;2023-08-08T08:38:03;16.70;99.90
37222;DHT22;23119;51.842;-2.230;2023-08-08T08:40:30;16.80;99.90
37222;DHT22;23119;51.842;-2.230;2023-08-08T08:43:00;17.00;99.90
37222;DHT22;23119;51.842;-2.230;2023-08-08T08:45:27;17.10;99.90
37222;DHT22;23119;51.842;-2.230;2023-08-08T08:47:56;17.10;99.90
37222;DHT22;23119;51.842;-2.230;2023-08-08T08:50:23;17.20;99.90
37222;DHT22;23119;51.842;-2.230;2023-08-08T08:52:53;17.20;99.90
37222;DHT22;23119;51.842;-2.230;2023-08-08T08:55:21;17.30;99.90
37222;DHT22;23119;51.842;-2.230;2023-08-08T08:57:49;17.20;99.90
37222;DHT22;23119;51.842;-2.230;2023-08-08T09:00:16;17.20;99.90
37222;DHT22;23119;51.842;-2.230;2023-08-08T09:02:42;17.20;99.90
37222;DHT22;23119;51.842;-2.230;2023-08-08T09:05:08;17.20;99.90
37222;DHT22;23119;51.842;-2.230;2023-08-08T09:07:38;17.20;99.90
37222;DHT22;23119;51.842;-2.230;2023-08-08T09:10:04;17.20;99.90
37222;DHT22;23119;51.842;-2.230;2023-08-08T09:12:31;17.10;99.90
37222;DHT22;23119;51.842;-2.230;2023-08-08T09:14:57;17.10;99.90
37222;DHT22;23119;51.842;-2.230;2023-08-08T09:17:29;17.10;99.90
37222;DHT22;23119;51.842;-2.230;2023-08-08T09:19:54;17.10;99.90
37222;DHT22;23119;51.842;-2.230;2023-08-08T09:22:20;17.10;99.90
37222;DHT22;23119;51.842;-2.230;2023-08-08T09:24:46;17.20;99.90
37222;DHT22;23119;51.842;-2.230;2023-08-08T09:27:13;17.20;99.90
37222;DHT22;23119;51.842;-2.230;2023-08-08T09:29:40;17.20;99.90
37222;DHT22;23119;51.842;-2.230;2023-08-08T09:32:07;17.30;99.90
37222;DHT22;23119;51.842;-2.230;2023-08-08T09:34:33;17.30;99.90
37222;DHT22;23119;51.842;-2.230;2023-08-08T09:36:59;17.30;99.90
37222;DHT22;23119;51.842;-2.230;2023-08-08T09:39:28;17.40;99.90
37222;DHT22;23119;51.842;-2.230;2023-08-08T09:41:57;17.40;99.90
37222;DHT22;23119;51.842;-2.230;2023-08-08T09:44:32;17.50;99.90
37222;DHT22;23119;51.842;-2.230;2023-08-08T09:47:00;17.50;99.90
37222;DHT22;23119;51.842;-2.230;2023-08-08T09:49:27;17.60;99.90
37222;DHT22;23119;51.842;-2.230;2023-08-08T09:51:54;17.70;99.90
37222;DHT22;23119;51.842;-2.230;2023-08-08T09:54:21;17.80;99.90
37222;DHT22;23119;51.842;-2.230;2023-08-08T09:56:48;17.80;99.90
37222;DHT22;23119;51.842;-2.230;2023-08-08T09:59:16;17.80;99.90
37222;DHT22;23119;51.842;-2.230;2023-08-08T10:01:43;17.80;99.90
37222;DHT22;23119;51.842;-2.230;2023-08-08T10:04:11;17.80;99.90
37222;DHT22;23119;51.842;-2.230;2023-08-08T10:06:37;17.80;99.90
37222;DHT22;23119;51.842;-2.230;2023-08-08T10:09:05;17.80;99.90
37222;DHT22;23119;51.842;-2.230;2023-08-08T10:11:32;17.90;99.90
37222;DHT22;23119;51.842;-2.230;2023-08-08T10:14:00;17.90;99.90
37222;DHT22;23119;51.842;-2.230;2023-08-08T10:16:26;18.00;99.90
37222;DHT22;23119;51.842;-2.230;2023-08-08T10:19:02;18.10;99.90
37222;DHT22;23119;51.842;-2.230;2023-08-08T10:21:33;18.30;99.90
37222;DHT22;23119;51.842;-2.230;2023-08-08T10:24:07;18.40;99.90
37222;DHT22;23119;51.842;-2.230;2023-08-08T10:26:58;18.50;99.90
37222;DHT22;23119;51.842;-2.230;2023-08-08T10:29:28;18.60;99.90
37222;DHT22;23119;51.842;-2.230;2023-08-08T10:31:59;18.70;99.90
37222;DHT22;23119;51.842;-2.230;2023-08-08T10:34:46;18.70;99.90
37222;DHT22;23119;51.842;-2.230;2023-08-08T10:37:17;18.80;99.90
37222;DHT22;23119;51.842;-2.230;2023-08-08T10:39:57;18.80;99.90
37222;DHT22;23119;51.842;-2.230;2023-08-08T10:42:27;18.80;99.90
37222;DHT22;23119;51.842;-2.230;2023-08-08T10:44:54;18.90;99.90
37222;DHT22;23119;51.842;-2.230;2023-08-08T10:47:31;18.90;99.90
37222;DHT22;23119;51.842;-2.230;2023-08-08T10:50:14;19.00;99.90
37222;DHT22;23119;51.842;-2.230;2023-08-08T10:55:35;19.10;99.90
37222;DHT22;23119;51.842;-2.230;2023-08-08T10:58:08;19.20;99.90
37222;DHT22;23119;51.842;-2.230;2023-08-08T11:00:39;19.40;99.90
37222;DHT22;23119;51.842;-2.230;2023-08-08T11:03:06;19.50;99.90
37222;DHT22;23119;51.842;-2.230;2023-08-08T11:05:47;19.60;99.90
37222;DHT22;23119;51.842;-2.230;2023-08-08T11:08:14;19.70;99.90
37222;DHT22;23119;51.842;-2.230;2023-08-08T11:10:44;18.60;99.90
37222;DHT22;23119;51.842;-2.230;2023-08-08T11:13:10;19.50;99.90
37222;DHT22;23119;51.842;-2.230;2023-08-08T11:15:37;19.60;99.90
37222;DHT22;23119;51.842;-2.230;2023-08-08T11:18:06;19.60;99.90
37222;DHT22;23119;51.842;-2.230;2023-08-08T11:20:38;19.70;99.90
37222;DHT22;23119;51.842;-2.230;2023-08-08T11:23:07;19.60;99.90
37222;DHT22;23119;51.842;-2.230;2023-08-08T11:25:36;19.50;99.90
37222;DHT22;23119;51.842;-2.230;2023-08-08T11:28:03;19.40;99.90
37222;DHT22;23119;51.842;-2.230;2023-08-08T11:30:37;19.20;99.90
37222;DHT22;23119;51.842;-2.230;2023-08-08T11:33:12;19.20;99.90
37222;DHT22;23119;51.842;-2.230;2023-08-08T11:35:43;19.20;99.90
37222;DHT22;23119;51.842;-2.230;2023-08-08T11:38:13;19.20;99.90
37222;DHT22;23119;51.842;-2.230;2023-08-08T11:40:39;19.30;99.90
37222;DHT22;23119;51.842;-2.230;2023-08-08T11:43:05;19.30;99.90
37222;DHT22;23119;51.842;-2.230;2023-08-08T11:45:32;19.40;99.90
37222;DHT22;23119;51.842;-2.230;2023-08-08T11:48:00;19.40;99.90
37222;DHT22;23119;51.842;-2.230;2023-08-08T11:50:29;19.40;99.90
37222;DHT22;23119;51.842;-2.230;2023-08-08T11:52:59;19.40;99.90
37222;DHT22;23119;51.842;-2.230;2023-08-08T11:55:28;19.40;99.90
37222;DHT22;23119;51.842;-2.230;2023-08-08T11:57:59;19.40;99.90
37222;DHT22;23119;51.842;-2.230;2023-08-08T12:00:29;19.40;99.90
37222;DHT22;23119;51.842;-2.230;2023-08-08T12:02:56;19.40;99.90
37222;DHT22;23119;51.842;-2.230;2023-08-08T12:05:24;19.40;99.90
37222;DHT22;23119;51.842;-2.230;2023-08-08T12:07:51;19.50;99.90
37222;DHT22;23119;51.842;-2.230;2023-08-08T12:10:20;19.50;99.90
37222;DHT22;23119;51.842;-2.230;2023-08-08T12:12:52;19.50;99.90
37222;DHT22;23119;51.842;-2.230;2023-08-08T12:15:21;19.60;99.90
37222;DHT22;23119;51.842;-2.230;2023-08-08T12:17:47;19.60;99.90
37222;DHT22;23119;51.842;-2.230;2023-08-08T12:20:15;19.50;99.90
37222;DHT22;23119;51.842;-2.230;2023-08-08T12:22:43;19.60;99.90
37222;DHT22;23119;51.842;-2.230;2023-08-08T12:25:11;19.60;99.90
37222;DHT22;23119;51.842;-2.230;2023-08-08T12:27:38;19.50;99.90
37222;DHT22;23119;51.842;-2.230;2023-08-08T12:30:06;19.50;99.90
37222;DHT22;23119;51.842;-2.230;2023-08-08T12:32:32;19.50;99.90
37222;DHT22;23119;51.842;-2.230;2023-08-08T12:34:58;19.40;99.90
37222;DHT22;23119;51.842;-2.230;2023-08-08T12:37:27;19.30;99.90
37222;DHT22;23119;51.842;-2.230;2023-08-08T12:39:55;19.30;99.90
37222;DHT22;23119;51.842;-2.230;2023-08-08T12:42:22;19.30;99.90
37222;DHT22;23119;51.842;-2.230;2023-08-08T12:44:47;19.40;99.90
37222;DHT22;23119;51.842;-2.230;2023-08-08T12:47:19;19.50;99.90
37222;DHT22;23119;51.842;-2.230;2023-08-08T12:49:46;19.50;99.90
37222;DHT22;23119;51.842;-2.230;2023-08-08T12:52:12;19.60;99.90
37222;DHT22;23119;51.842;-2.230;2023-08-08T12:54:38;19.70;99.90
37222;DHT22;23119;51.842;-2.230;2023-08-08T12:57:04;19.80;99.90
37222;DHT22;23119;51.842;-2.230;2023-08-08T12:59:30;20.00;99.90
37222;DHT22;23119;51.842;-2.230;2023-08-08T13:01:56;20.20;99.90
37222;DHT22;23119;51.842;-2.230;2023-08-08T13:04:22;20.30;99.90
37222;DHT22;23119;51.842;-2.230;2023-08-08T13:06:50;20.40;99.90
37222;DHT22;23119;51.842;-2.230;2023-08-08T13:09:15;20.50;99.90
37222;DHT22;23119;51.842;-2.230;2023-08-08T13:11:41;20.50;99.90
37222;DHT22;23119;51.842;-2.230;2023-08-08T13:14:07;20.50;99.90
37222;DHT22;23119;51.842;-2.230;2023-08-08T13:16:33;20.40;99.90
37222;DHT22;23119;51.842;-2.230;2023-08-08T13:18:59;20.50;99.90
37222;DHT22;23119;51.842;-2.230;2023-08-08T13:21:25;20.70;99.90
37222;DHT22;23119;51.842;-2.230;2023-08-08T13:23:51;20.80;99.90
37222;DHT22;23119;51.842;-2.230;2023-08-08T13:26:16;20.90;99.90
37222;DHT22;23119;51.842;-2.230;2023-08-08T13:28:42;21.00;99.90
37222;DHT22;23119;51.842;-2.230;2023-08-08T13:31:08;21.00;99.90
37222;DHT22;23119;51.842;-2.230;2023-08-08T13:33:34;21.10;99.90
37222;DHT22;23119;51.842;-2.230;2023-08-08T13:36:00;21.10;99.90
37222;DHT22;23119;51.842;-2.230;2023-08-08T13:38:26;21.00;99.90
37222;DHT22;23119;51.842;-2.230;2023-08-08T13:40:52;20.80;99.90
37222;DHT22;23119;51.842;-2.230;2023-08-08T13:43:21;20.70;99.90
37222;DHT22;23119;51.842;-2.230;2023-08-08T13:45:47;20.60;99.90
37222;DHT22;23119;51.842;-2.230;2023-08-08T13:48:12;20.50;99.90
37222;DHT22;23119;51.842;-2.230;2023-08-08T13:50:38;20.40;99.90
37222;DHT22;23119;51.842;-2.230;2023-08-08T13:53:04;20.40;99.90
37222;DHT22;23119;51.842;-2.230;2023-08-08T13:55:29;20.40;99.90
37222;DHT22;23119;51.842;-2.230;2023-08-08T13:57:58;20.40;99.90
37222;DHT22;23119;51.842;-2.230;2023-08-08T14:00:26;20.30;99.90
37222;DHT22;23119;51.842;-2.230;2023-08-08T14:02:52;20.20;99.90
37222;DHT22;23119;51.842;-2.230;2023-08-08T14:05:17;20.30;99.90
37222;DHT22;23119;51.842;-2.230;2023-08-08T14:07:43;20.30;99.90
37222;DHT22;23119;51.842;-2.230;2023-08-08T14:10:11;20.30;99.90
37222;DHT22;23119;51.842;-2.230;2023-08-08T14:12:40;20.30;99.90
37222;DHT22;23119;51.842;-2.230;2023-08-08T14:15:06;20.40;99.90
37222;DHT22;23119;51.842;-2.230;2023-08-08T14:17:35;20.30;99.90
37222;DHT22;23119;51.842;-2.230;2023-08-08T14:20:01;20.30;99.90
37222;DHT22;23119;51.842;-2.230;2023-08-08T14:22:26;20.30;99.90
37222;DHT22;23119;51.842;-2.230;2023-08-08T14:24:52;20.20;99.90
37222;DHT22;23119;51.842;-2.230;2023-08-08T14:27:18;20.10;99.90
37222;DHT22;23119;51.842;-2.230;2023-08-08T14:29:43;20.10;99.90
37222;DHT22;23119;51.842;-2.230;2023-08-08T14:32:11;19.90;99.90
37222;DHT22;23119;51.842;-2.230;2023-08-08T14:34:37;19.80;99.90
37222;DHT22;23119;51.842;-2.230;2023-08-08T14:37:05;19.60;99.90
37222;DHT22;23119;51.842;-2.230;2023-08-08T14:39:31;19.50;99.90
37222;DHT22;23119;51.842;-2.230;2023-08-08T14:41:57;19.40;99.90
37222;DHT22;23119;51.842;-2.230;2023-08-08T14:44:23;19.30;99.90
37222;DHT22;23119;51.842;-2.230;2023-08-08T14:46:49;19.20;99.90
37222;DHT22;23119;51.842;-2.230;2023-08-08T14:49:20;19.00;99.90
37222;DHT22;23119;51.842;-2.230;2023-08-08T14:51:46;18.90;99.90
37222;DHT22;23119;51.842;-2.230;2023-08-08T14:54:14;18.80;99.90
37222;DHT22;23119;51.842;-2.230;2023-08-08T14:56:40;18.60;99.90
37222;DHT22;23119;51.842;-2.230;2023-08-08T14:59:06;18.50;99.90
37222;DHT22;23119;51.842;-2.230;2023-08-08T15:01:32;18.40;99.90
37222;DHT22;23119;51.842;-2.230;2023-08-08T15:04:00;18.40;99.90
37222;DHT22;23119;51.842;-2.230;2023-08-08T15:06:25;18.30;99.90
37222;DHT22;23119;51.842;-2.230;2023-08-08T15:08:51;18.20;99.90
37222;DHT22;23119;51.842;-2.230;2023-08-08T15:11:17;18.20;99.90
37222;DHT22;23119;51.842;-2.230;2023-08-08T15:13:43;18.20;99.90
37222;DHT22;23119;51.842;-2.230;2023-08-08T15:16:11;18.20;99.90
37222;DHT22;23119;51.842;-2.230;2023-08-08T15:18:39;18.20;99.90